Time;durP1;ratioP1;P1;durP2;ratioP2;P2;SDS_P1;SDS_P2;PMS_P1;PMS_P2;Temp;Humidity;BMP_temperature;BMP_pressure;BME280_temperature;BME280_humidity;BME280_pressure;Samples;Min_cycle;Max_cycle;Signal;HPM_P1;HPM_P2
2022/01/04 00:00:37;;;;;;;19.30;7.90;;;9.00;99.90;;;;;;4978648;28;20045;-88
2022/01/04 00:03:02;;;;;;;23.10;9.30;;;9.00;99.90;;;;;;5021766;28;20403;-88
2022/01/04 00:05:28;;;;;;;22.13;9.57;;;9.00;99.90;;;;;;4993049;28;20052;-89
2022/01/04 00:07:54;;;;;;;20.08;8.82;;;9.00;99.90;;;;;;5008835;28;20462;-89
2022/01/04 00:10:23;;;;;;;21.20;7.90;;;9.00;99.90;;;;;;5025524;28;20065;-88
2022/01/04 00:15:34;;;;;;;30.63;9.13;;;9.00;99.90;;;;;;5015848;28;20034;-89
2022/01/04 00:18:00;;;;;;;22.27;9.80;;;9.00;99.90;;;;;;5024291;28;20038;-88
2022/01/04 00:20:25;;;;;;;23.50;9.38;;;9.00;99.90;;;;;;4994766;28;20038;-88
2022/01/04 00:22:51;;;;;;;20.08;8.95;;;9.00;99.90;;;;;;4998220;28;20064;-88
2022/01/04 00:25:17;;;;;;;23.90;9.68;;;9.00;99.90;;;;;;5031109;28;20085;-89
2022/01/04 00:27:43;;;;;;;20.67;9.77;;;9.10;99.90;;;;;;4996706;28;20483;-89
2022/01/04 00:30:09;;;;;;;23.42;9.45;;;9.00;99.90;;;;;;5012616;28;20176;-88
2022/01/04 00:32:35;;;;;;;21.52;8.90;;;9.00;99.90;;;;;;4995738;28;20052;-88
2022/01/04 00:35:00;;;;;;;24.67;10.10;;;9.00;99.90;;;;;;4995452;28;20034;-88
2022/01/04 00:37:26;;;;;;;19.88;9.32;;;9.10;99.90;;;;;;5011746;28;20042;-88
2022/01/04 00:39:51;;;;;;;23.20;11.40;;;9.10;99.90;;;;;;5029100;28;20041;-89
2022/01/04 00:42:17;;;;;;;22.85;9.85;;;9.10;99.90;;;;;;5012757;28;20069;-88
2022/01/04 00:44:42;;;;;;;23.67;9.88;;;9.00;99.90;;;;;;4995739;28;20515;-88
2022/01/04 00:47:09;;;;;;;16.80;10.40;;;9.10;99.90;;;;;;5028250;28;20049;-88
2022/01/04 00:49:36;;;;;;;23.88;11.30;;;9.00;99.90;;;;;;5011880;28;20034;-88
2022/01/04 00:52:01;;;;;;;19.67;10.35;;;9.00;99.90;;;;;;4995608;28;20041;-88
2022/01/04 00:54:27;;;;;;;22.10;11.90;;;9.00;99.90;;;;;;4986710;28;20034;-88
2022/01/04 00:56:53;;;;;;;23.80;11.65;;;9.00;99.90;;;;;;4976546;28;20034;-88
2022/01/04 00:59:19;;;;;;;22.92;11.60;;;9.00;99.90;;;;;;4985477;28;20042;-89
2022/01/04 01:01:45;;;;;;;24.35;11.52;;;8.90;99.90;;;;;;5010880;28;20096;-88
2022/01/04 01:04:11;;;;;;;22.08;11.15;;;8.90;99.90;;;;;;5010396;28;20034;-88
2022/01/04 01:06:37;;;;;;;22.17;11.20;;;8.90;99.90;;;;;;4995524;28;20033;-88
2022/01/04 01:09:04;;;;;;;26.67;11.82;;;8.90;99.90;;;;;;4999398;28;20046;-88
2022/01/04 01:11:30;;;;;;;21.90;12.10;;;8.90;99.90;;;;;;4976245;28;20407;-88
2022/01/04 01:13:55;;;;;;;22.98;11.60;;;8.90;99.90;;;;;;4994852;28;20038;-88
2022/01/04 01:16:21;;;;;;;22.08;11.95;;;8.80;99.90;;;;;;4995770;28;20050;-88
2022/01/04 01:18:47;;;;;;;28.10;12.65;;;8.80;99.90;;;;;;4995685;28;20041;-88
2022/01/04 01:21:13;;;;;;;20.65;11.95;;;8.80;99.90;;;;;;5010625;28;20034;-89
2022/01/04 01:23:40;;;;;;;21.60;12.25;;;8.80;99.90;;;;;;5011721;28;20099;-88
2022/01/04 01:26:07;;;;;;;28.63;13.02;;;8.80;99.90;;;;;;4990114;28;20041;-89
2022/01/04 01:28:35;;;;;;;20.88;12.57;;;8.80;99.90;;;;;;4975155;28;20531;-88
2022/01/04 01:31:01;;;;;;;25.85;13.05;;;8.80;99.90;;;;;;5011334;28;20125;-88
2022/01/04 01:33:27;;;;;;;21.02;12.85;;;8.70;99.90;;;;;;5010932;28;20140;-88
2022/01/04 01:35:54;;;;;;;22.70;12.98;;;8.70;99.90;;;;;;5027328;28;20054;-89
2022/01/04 01:38:20;;;;;;;23.73;12.10;;;8.70;99.90;;;;;;5011670;28;20589;-88
2022/01/04 01:40:47;;;;;;;24.92;14.15;;;8.70;99.90;;;;;;4994133;28;20518;-88
2022/01/04 01:43:13;;;;;;;23.67;12.27;;;8.70;99.90;;;;;;4994527;28;20034;-88
2022/01/04 01:45:40;;;;;;;22.92;12.48;;;8.70;99.90;;;;;;4977952;28;20084;-88
2022/01/04 01:48:06;;;;;;;27.13;13.07;;;8.70;99.90;;;;;;4975318;28;20523;-89
2022/01/04 01:50:31;;;;;;;31.20;14.00;;;8.70;99.90;;;;;;4979976;28;20038;-89
2022/01/04 01:52:57;;;;;;;23.30;13.77;;;8.70;99.90;;;;;;4991284;28;20033;-89
2022/01/04 01:55:24;;;;;;;26.33;14.45;;;8.70;99.90;;;;;;4994521;28;20038;-88
2022/01/04 01:57:51;;;;;;;23.60;15.10;;;8.70;99.90;;;;;;5010387;28;20080;-89
2022/01/04 02:00:20;;;;;;;24.63;14.13;;;8.60;99.90;;;;;;4995041;28;20089;-88
2022/01/04 02:02:45;;;;;;;26.33;15.13;;;8.60;99.90;;;;;;4988138;28;20121;-88
2022/01/04 02:05:11;;;;;;;26.48;14.82;;;8.60;99.90;;;;;;4981148;28;20133;-88
2022/01/04 02:07:39;;;;;;;28.33;15.95;;;8.60;99.90;;;;;;4991316;28;20046;-87
2022/01/04 02:10:07;;;;;;;25.50;15.32;;;8.60;99.90;;;;;;4985409;28;20480;-88
2022/01/04 02:12:44;;;;;;;24.83;14.45;;;8.60;99.90;;;;;;5008841;28;20084;-88
2022/01/04 02:15:12;;;;;;;28.60;15.63;;;8.50;99.90;;;;;;4993396;28;20521;-88
2022/01/04 02:17:38;;;;;;;29.63;14.85;;;8.50;99.90;;;;;;4994011;28;20049;-88
2022/01/04 02:20:05;;;;;;;27.25;16.33;;;8.50;99.90;;;;;;4990323;28;20042;-88
2022/01/04 02:22:32;;;;;;;24.50;15.27;;;8.50;99.90;;;;;;5008719;28;20038;-88
2022/01/04 02:24:58;;;;;;;28.20;16.65;;;8.50;99.90;;;;;;4992397;28;20037;-88
2022/01/04 02:27:23;;;;;;;25.63;15.70;;;8.50;99.90;;;;;;5010204;28;20046;-88
2022/01/04 02:29:49;;;;;;;29.60;17.02;;;8.40;99.90;;;;;;5009762;28;20129;-88
2022/01/04 02:32:15;;;;;;;33.88;16.63;;;8.40;99.90;;;;;;4994278;28;20045;-88
2022/01/04 02:34:46;;;;;;;27.98;16.35;;;8.40;99.90;;;;;;4993383;28;20070;-88
2022/01/04 02:37:11;;;;;;;28.50;16.50;;;8.40;99.90;;;;;;4994131;28;20573;-88
2022/01/04 02:39:38;;;;;;;25.90;15.82;;;8.40;99.90;;;;;;5010322;28;20050;-88
2022/01/04 02:42:05;;;;;;;32.80;16.80;;;8.40;99.90;;;;;;5009913;28;20034;-88
2022/01/04 02:44:32;;;;;;;28.73;15.68;;;8.40;99.90;;;;;;5009818;28;20180;-88
2022/01/04 02:46:58;;;;;;;26.00;16.23;;;8.30;99.90;;;;;;4990297;28;20053;-88
2022/01/04 02:49:24;;;;;;;39.13;18.08;;;8.30;99.90;;;;;;4990135;28;20046;-89
2022/01/04 02:51:49;;;;;;;31.20;17.58;;;8.30;99.90;;;;;;4990539;28;20041;-88
2022/01/04 02:54:15;;;;;;;29.92;17.08;;;8.30;99.90;;;;;;4974227;28;20030;-88
2022/01/04 02:56:41;;;;;;;30.70;17.63;;;8.30;99.90;;;;;;5008574;28;20041;-88
2022/01/04 02:59:06;;;;;;;30.00;17.10;;;8.20;99.90;;;;;;4992946;28;20036;-88
2022/01/04 03:01:32;;;;;;;29.60;18.45;;;8.20;99.90;;;;;;5008789;28;20038;-88
2022/01/04 03:03:57;;;;;;;30.88;16.52;;;8.30;99.90;;;;;;4978616;28;20056;-88
2022/01/04 03:06:24;;;;;;;32.90;17.35;;;8.30;99.90;;;;;;5006767;28;20038;-88
2022/01/04 03:08:50;;;;;;;32.25;17.83;;;8.30;99.90;;;;;;4990390;28;20074;-88
2022/01/04 03:11:15;;;;;;;30.98;18.27;;;8.20;99.90;;;;;;5000850;28;20521;-88
2022/01/04 03:13:41;;;;;;;31.67;18.40;;;8.30;99.90;;;;;;5007827;28;20125;-88
2022/01/04 03:16:07;;;;;;;28.08;17.92;;;8.20;99.90;;;;;;5005745;28;20030;-88
2022/01/04 03:18:33;;;;;;;34.20;19.45;;;8.20;99.90;;;;;;4974313;28;20534;-88
2022/01/04 03:20:58;;;;;;;27.70;17.88;;;8.30;99.90;;;;;;4973601;28;20070;-88
2022/01/04 03:23:24;;;;;;;31.35;18.15;;;8.30;99.90;;;;;;4990200;28;20046;-88
2022/01/04 03:25:50;;;;;;;33.78;18.50;;;8.20;99.90;;;;;;4990643;28;20427;-88
2022/01/04 03:28:19;;;;;;;34.17;19.95;;;8.30;99.90;;;;;;5004208;28;20415;-88
2022/01/04 03:30:45;;;;;;;30.20;18.25;;;8.30;99.90;;;;;;4990236;28;20050;-88
2022/01/04 03:33:11;;;;;;;36.42;20.45;;;8.30;99.90;;;;;;5005048;28;20507;-88
2022/01/04 03:35:37;;;;;;;34.33;18.67;;;8.30;99.90;;;;;;4993227;28;20034;-88
2022/01/04 03:38:02;;;;;;;29.13;18.63;;;8.30;99.90;;;;;;4988707;28;20065;-88
2022/01/04 03:40:28;;;;;;;32.30;19.70;;;8.40;99.90;;;;;;4990352;28;20051;-88
2022/01/04 03:42:53;;;;;;;31.40;19.90;;;8.40;99.90;;;;;;4999025;28;20045;-88
2022/01/04 03:45:19;;;;;;;32.88;20.13;;;8.40;99.90;;;;;;5009577;28;20060;-88
2022/01/04 03:47:45;;;;;;;35.10;20.00;;;8.40;99.90;;;;;;4989234;28;20038;-88
2022/01/04 03:50:10;;;;;;;34.63;20.70;;;8.40;99.90;;;;;;5009117;28;20100;-88
2022/01/04 03:52:36;;;;;;;36.15;21.38;;;8.40;99.90;;;;;;5009352;28;20039;-89
2022/01/04 03:55:05;;;;;;;35.53;19.75;;;8.40;99.90;;;;;;5010900;28;20038;-88
2022/01/04 03:57:30;;;;;;;32.13;19.98;;;8.40;99.90;;;;;;4994685;28;20052;-88
2022/01/04 03:59:56;;;;;;;31.48;21.25;;;8.40;99.90;;;;;;5005505;28;20034;-89
2022/01/04 04:02:22;;;;;;;32.20;21.00;;;8.40;99.90;;;;;;4978486;28;20049;-88
2022/01/04 04:04:47;;;;;;;35.33;20.90;;;8.50;99.90;;;;;;4996624;28;20451;-88
2022/01/04 04:07:13;;;;;;;36.10;20.88;;;8.50;99.90;;;;;;5012416;28;20073;-89
2022/01/04 04:09:40;;;;;;;37.47;20.70;;;8.40;99.90;;;;;;4988824;28;20041;-88
2022/01/04 04:12:06;;;;;;;35.33;21.58;;;8.50;99.90;;;;;;5027237;28;20089;-88
2022/01/04 04:14:32;;;;;;;30.92;20.30;;;8.50;99.90;;;;;;5012112;28;20030;-88
2022/01/04 04:16:57;;;;;;;34.30;21.25;;;8.50;99.90;;;;;;5013044;28;20474;-88
2022/01/04 04:19:23;;;;;;;32.92;21.63;;;8.50;99.90;;;;;;5010645;28;20050;-89
2022/01/04 04:21:48;;;;;;;36.28;21.77;;;8.50;99.90;;;;;;5012810;28;20072;-89
2022/01/04 04:24:14;;;;;;;34.47;21.02;;;8.50;99.90;;;;;;4994785;28;20038;-88
2022/01/04 04:26:39;;;;;;;35.08;20.55;;;8.50;99.90;;;;;;4992930;28;20042;-88
2022/01/04 04:29:05;;;;;;;34.78;20.60;;;8.50;99.90;;;;;;4997902;28;20038;-88
2022/01/04 04:31:31;;;;;;;36.22;21.23;;;8.50;99.90;;;;;;5012408;28;20057;-88
2022/01/04 04:33:57;;;;;;;36.45;21.95;;;8.50;99.90;;;;;;4995859;28;20117;-88
2022/01/04 04:36:22;;;;;;;33.97;19.30;;;8.50;99.90;;;;;;5012409;28;20042;-89
2022/01/04 04:38:48;;;;;;;33.22;20.10;;;8.50;99.90;;;;;;4996221;28;20077;-88
2022/01/04 04:41:13;;;;;;;32.80;20.75;;;8.50;99.90;;;;;;4994164;28;20034;-88
2022/01/04 04:43:39;;;;;;;33.42;20.38;;;8.50;99.90;;;;;;4992769;28;20097;-89
2022/01/04 04:46:05;;;;;;;33.00;20.88;;;8.50;99.90;;;;;;5011531;28;20117;-88
2022/01/04 04:48:30;;;;;;;34.15;21.73;;;8.50;99.90;;;;;;4987075;28;20038;-89
2022/01/04 04:50:56;;;;;;;31.10;20.40;;;8.50;99.90;;;;;;5009556;28;20488;-89
2022/01/04 04:53:22;;;;;;;31.20;19.95;;;8.50;99.90;;;;;;4995014;28;20479;-88
2022/01/04 04:55:47;;;;;;;34.33;20.73;;;8.50;99.90;;;;;;5012076;28;20030;-89
2022/01/04 04:58:13;;;;;;;34.13;20.95;;;8.50;99.90;;;;;;4996068;28;20551;-88
2022/01/04 05:00:39;;;;;;;30.73;19.33;;;8.50;99.90;;;;;;5011988;28;20207;-88
2022/01/04 05:03:04;;;;;;;32.42;18.98;;;8.50;99.90;;;;;;5010934;28;20057;-88
2022/01/04 05:05:30;;;;;;;31.60;20.27;;;8.50;99.90;;;;;;5022954;28;20113;-88
2022/01/04 05:07:56;;;;;;;33.05;20.10;;;8.50;99.90;;;;;;5005312;28;20042;-88
2022/01/04 05:10:21;;;;;;;33.08;21.13;;;8.50;99.90;;;;;;5003889;28;20121;-88
2022/01/04 05:12:47;;;;;;;31.17;19.55;;;8.50;99.90;;;;;;4993738;28;20495;-88
2022/01/04 05:15:13;;;;;;;28.17;18.98;;;8.50;99.90;;;;;;5013207;28;20042;-88
2022/01/04 05:17:39;;;;;;;29.42;19.55;;;8.50;99.90;;;;;;5011529;28;20514;-88
2022/01/04 05:20:05;;;;;;;35.10;18.33;;;8.50;99.90;;;;;;4976132;28;20040;-88
2022/01/04 05:22:30;;;;;;;29.73;17.70;;;8.50;99.90;;;;;;4995027;28;20046;-88
2022/01/04 05:24:56;;;;;;;22.35;14.52;;;8.50;99.90;;;;;;5010932;28;20396;-88
2022/01/04 05:27:22;;;;;;;25.65;14.57;;;8.50;99.90;;;;;;5012081;28;20038;-88
2022/01/04 05:29:47;;;;;;;28.80;15.55;;;8.50;99.90;;;;;;5011259;28;20503;-89
2022/01/04 05:32:13;;;;;;;27.08;16.40;;;8.50;99.90;;;;;;5011640;28;20076;-88
2022/01/04 05:34:39;;;;;;;30.58;17.08;;;8.50;99.90;;;;;;5005575;28;20077;-88
2022/01/04 05:37:05;;;;;;;34.38;19.30;;;8.50;99.90;;;;;;4975906;28;20073;-89
2022/01/04 05:39:31;;;;;;;30.45;19.35;;;8.50;99.90;;;;;;5007840;28;20072;-88
2022/01/04 05:41:56;;;;;;;30.10;19.65;;;8.50;99.90;;;;;;4995222;28;20487;-88
2022/01/04 05:44:22;;;;;;;31.30;20.08;;;8.50;99.90;;;;;;5010735;28;20045;-89
2022/01/04 05:46:47;;;;;;;31.25;20.58;;;8.50;99.90;;;;;;4994255;28;20037;-89
2022/01/04 05:49:13;;;;;;;32.35;20.58;;;8.50;99.90;;;;;;4994575;28;20077;-88
2022/01/04 05:51:39;;;;;;;33.10;19.95;;;8.50;99.90;;;;;;5011116;28;20095;-88
2022/01/04 05:54:04;;;;;;;31.20;18.75;;;8.50;99.90;;;;;;4985877;28;20042;-89
2022/01/04 05:56:31;;;;;;;35.25;19.40;;;8.50;99.90;;;;;;4983168;28;20073;-88
2022/01/04 05:58:57;;;;;;;30.67;18.52;;;8.50;99.90;;;;;;5007874;28;20050;-89
2022/01/04 06:01:22;;;;;;;28.92;18.20;;;8.50;99.90;;;;;;5010774;28;20030;-89
2022/01/04 06:03:51;;;;;;;31.00;20.05;;;8.50;99.90;;;;;;5010324;28;20087;-89
2022/01/04 06:06:16;;;;;;;29.42;18.65;;;8.50;99.90;;;;;;5025927;28;20069;-88
2022/01/04 06:08:42;;;;;;;31.73;18.73;;;8.50;99.90;;;;;;5010689;28;20049;-89
2022/01/04 06:11:18;;;;;;;30.83;19.15;;;8.50;99.90;;;;;;5026965;28;20034;-88
2022/01/04 06:16:28;;;;;;;29.17;18.88;;;8.50;99.90;;;;;;5007895;28;20803;-89
2022/01/04 06:18:53;;;;;;;28.15;18.80;;;8.50;99.90;;;;;;5010481;28;20045;-88
2022/01/04 06:21:19;;;;;;;25.20;18.42;;;8.50;99.90;;;;;;4991384;28;20045;-89
2022/01/04 06:23:44;;;;;;;29.55;19.48;;;8.50;99.90;;;;;;4974403;28;20050;-89
2022/01/04 06:26:10;;;;;;;29.95;20.17;;;8.50;99.90;;;;;;4991374;28;20042;-89
2022/01/04 06:28:38;;;;;;;27.38;18.50;;;8.50;99.90;;;;;;4996420;28;20045;-89
2022/01/04 06:31:03;;;;;;;29.40;19.05;;;8.50;99.90;;;;;;4990602;28;20124;-89
2022/01/04 06:33:29;;;;;;;29.83;20.05;;;8.50;99.90;;;;;;4990601;28;20109;-89
2022/01/04 06:35:54;;;;;;;32.42;18.42;;;8.50;99.90;;;;;;4975153;28;20045;-88
2022/01/04 06:38:20;;;;;;;28.55;18.05;;;8.50;99.90;;;;;;4981856;28;20578;-89
2022/01/04 06:40:46;;;;;;;29.38;19.17;;;8.50;99.90;;;;;;5010364;28;20521;-89
2022/01/04 06:43:11;;;;;;;31.58;20.65;;;8.50;99.90;;;;;;5010182;28;20065;-88
2022/01/04 06:45:37;;;;;;;32.05;19.80;;;8.50;99.90;;;;;;4979037;28;20518;-89
2022/01/04 06:48:04;;;;;;;28.83;19.10;;;8.50;99.90;;;;;;4990526;28;20046;-89
2022/01/04 06:50:30;;;;;;;34.50;20.13;;;8.50;99.90;;;;;;5002216;28;20089;-89
2022/01/04 06:52:56;;;;;;;28.35;19.20;;;8.40;99.90;;;;;;5006629;28;20455;-89
2022/01/04 06:55:21;;;;;;;31.33;20.40;;;8.50;99.90;;;;;;4993517;28;20037;-88
2022/01/04 06:57:47;;;;;;;31.92;20.63;;;8.40;99.90;;;;;;5010205;28;20045;-89
2022/01/04 07:00:13;;;;;;;32.30;19.90;;;8.40;99.90;;;;;;5009586;28;20073;-89
2022/01/04 07:02:39;;;;;;;31.40;22.10;;;8.50;99.90;;;;;;5024113;28;20041;-88
2022/01/04 07:05:04;;;;;;;32.65;20.20;;;8.50;99.90;;;;;;5009808;28;20047;-89
2022/01/04 07:07:30;;;;;;;32.45;20.65;;;8.50;99.90;;;;;;5007370;28;20045;-89
2022/01/04 07:09:56;;;;;;;31.50;20.10;;;8.50;99.90;;;;;;4999056;28;20129;-89
2022/01/04 07:12:21;;;;;;;35.25;21.05;;;8.50;99.90;;;;;;4974347;28;20033;-89
2022/01/04 07:14:47;;;;;;;34.30;21.55;;;8.50;99.90;;;;;;4996926;28;20573;-89
2022/01/04 07:17:12;;;;;;;31.05;21.20;;;8.50;99.90;;;;;;4979128;28;20041;-89
2022/01/04 07:19:39;;;;;;;31.80;20.90;;;8.50;99.90;;;;;;5022870;28;20071;-88
2022/01/04 07:22:04;;;;;;;36.97;22.27;;;8.50;99.90;;;;;;4974316;28;20038;-89
2022/01/04 07:24:30;;;;;;;34.28;20.50;;;8.50;99.90;;;;;;5009058;28;20103;-89
2022/01/04 07:26:56;;;;;;;35.13;22.02;;;8.50;99.90;;;;;;5008147;28;20049;-89
2022/01/04 07:29:21;;;;;;;30.25;20.20;;;8.50;99.90;;;;;;4993625;28;20038;-89
2022/01/04 07:31:47;;;;;;;33.58;22.33;;;8.50;99.90;;;;;;5013163;28;20048;-89
2022/01/04 07:34:13;;;;;;;35.08;21.65;;;8.50;99.90;;;;;;5013512;28;20061;-89
2022/01/04 07:36:38;;;;;;;34.58;20.13;;;8.50;99.90;;;;;;5012950;28;20056;-89
2022/01/04 07:39:04;;;;;;;33.45;20.10;;;8.50;99.90;;;;;;4996739;28;20038;-89
2022/01/04 07:41:29;;;;;;;34.83;21.92;;;8.50;99.90;;;;;;4995413;28;20073;-89
2022/01/04 07:43:55;;;;;;;31.52;20.48;;;8.50;99.90;;;;;;5013464;28;20049;-89
2022/01/04 07:46:23;;;;;;;34.88;21.65;;;8.50;99.90;;;;;;5009861;28;20451;-88
2022/01/04 07:48:50;;;;;;;35.88;22.13;;;8.50;99.90;;;;;;4997006;28;20407;-89
2022/01/04 07:51:16;;;;;;;33.78;21.48;;;8.50;99.90;;;;;;4996685;28;20042;-89
2022/01/04 07:53:42;;;;;;;33.47;22.02;;;8.50;99.90;;;;;;5012677;28;20034;-89
2022/01/04 07:56:08;;;;;;;32.58;21.40;;;8.50;99.90;;;;;;4997161;28;20143;-88
2022/01/04 07:58:33;;;;;;;36.22;21.88;;;8.50;99.90;;;;;;5013057;28;20042;-89
2022/01/04 08:00:59;;;;;;;34.30;21.80;;;8.50;99.90;;;;;;5012700;28;20446;-89
2022/01/04 08:03:24;;;;;;;33.80;21.80;;;8.50;99.90;;;;;;4995941;28;20050;-89
2022/01/04 08:05:50;;;;;;;33.60;22.60;;;8.50;99.90;;;;;;4996812;28;20042;-89
2022/01/04 08:08:16;;;;;;;31.70;22.30;;;8.50;99.90;;;;;;4993040;28;20038;-89
2022/01/04 08:10:42;;;;;;;32.22;21.08;;;8.50;99.90;;;;;;4993583;28;20047;-89
2022/01/04 08:13:08;;;;;;;36.30;21.70;;;8.50;99.90;;;;;;4978669;28;20042;-89
2022/01/04 08:15:34;;;;;;;30.65;20.35;;;8.50;99.90;;;;;;5011530;28;20140;-89
2022/01/04 08:17:59;;;;;;;34.83;21.38;;;8.50;99.90;;;;;;5013358;28;20045;-89
2022/01/04 08:20:25;;;;;;;30.83;20.95;;;8.50;99.90;;;;;;5013122;28;20050;-88
2022/01/04 08:22:51;;;;;;;34.17;20.65;;;8.50;99.90;;;;;;5012103;28;20050;-88
2022/01/04 08:25:16;;;;;;;33.08;22.65;;;8.50;99.90;;;;;;5012797;28;20060;-88
2022/01/04 08:27:42;;;;;;;31.65;21.27;;;8.50;99.90;;;;;;4997463;28;20043;-89
2022/01/04 08:30:10;;;;;;;32.85;21.33;;;8.50;99.90;;;;;;4977152;28;20153;-88
2022/01/04 08:32:37;;;;;;;31.45;20.50;;;8.50;99.90;;;;;;4981333;28;20041;-89
2022/01/04 08:35:03;;;;;;;32.10;21.50;;;8.50;99.90;;;;;;5012231;28;20727;-88
2022/01/04 08:37:29;;;;;;;31.05;19.63;;;8.50;99.90;;;;;;5001681;28;20054;-88
2022/01/04 08:39:55;;;;;;;30.70;19.85;;;8.50;99.90;;;;;;4977097;28;20042;-88
2022/01/04 08:42:22;;;;;;;30.38;20.00;;;8.50;99.90;;;;;;4975675;28;20053;-88
2022/01/04 08:44:49;;;;;;;31.10;20.20;;;8.50;99.90;;;;;;4991858;28;20061;-88
2022/01/04 08:47:14;;;;;;;28.08;20.50;;;8.50;99.90;;;;;;4993478;28;20415;-88
2022/01/04 08:49:40;;;;;;;32.88;20.35;;;8.50;99.90;;;;;;4976695;28;20488;-89
2022/01/04 08:52:07;;;;;;;25.88;18.85;;;8.50;99.90;;;;;;4976257;28;20070;-89
2022/01/04 08:54:34;;;;;;;32.60;23.17;;;8.50;99.90;;;;;;4992342;28;20034;-89
2022/01/04 08:57:00;;;;;;;34.65;21.90;;;8.50;99.90;;;;;;4993336;28;20257;-88
2022/01/04 08:59:27;;;;;;;35.22;21.80;;;8.50;99.90;;;;;;5011909;28;20392;-89
2022/01/04 09:01:53;;;;;;;29.70;20.55;;;8.50;99.90;;;;;;5012274;28;20044;-89
2022/01/04 09:04:20;;;;;;;30.15;20.75;;;8.50;99.90;;;;;;4995926;28;20096;-88
2022/01/04 09:06:46;;;;;;;33.55;22.98;;;8.50;99.90;;;;;;5028336;28;20056;-88
2022/01/04 09:09:12;;;;;;;33.20;21.65;;;8.60;99.90;;;;;;5016222;28;20049;-89
2022/01/04 09:11:38;;;;;;;34.30;20.63;;;8.60;99.90;;;;;;5012166;28;20132;-89
2022/01/04 09:19:23;;;;;;;27.98;21.38;;;8.60;99.90;;;;;;5010043;28;20073;-89
2022/01/04 09:21:49;;;;;;;32.17;22.25;;;8.60;99.90;;;;;;4995205;28;20135;-89
2022/01/04 09:24:15;;;;;;;32.90;21.83;;;8.60;99.90;;;;;;4995259;28;20438;-88
2022/01/04 09:26:41;;;;;;;30.33;22.15;;;8.60;99.90;;;;;;4994908;28;20471;-88
2022/01/04 09:29:07;;;;;;;30.88;21.77;;;8.60;99.90;;;;;;5011244;28;20129;-88
2022/01/04 09:31:32;;;;;;;38.90;23.70;;;8.60;99.90;;;;;;4995322;28;20044;-88
2022/01/04 09:34:03;;;;;;;35.42;23.48;;;8.60;99.90;;;;;;4995090;28;20411;-89
2022/01/04 09:36:37;;;;;;;33.63;22.33;;;8.60;99.90;;;;;;5010876;28;20038;-88
2022/01/04 09:39:07;;;;;;;37.33;22.23;;;8.60;99.90;;;;;;4991687;28;20038;-88
2022/01/04 09:41:33;;;;;;;33.60;22.88;;;8.60;99.90;;;;;;5008538;28;20500;-88
2022/01/04 09:43:59;;;;;;;34.30;22.63;;;8.60;99.90;;;;;;4975071;28;20083;-89
2022/01/04 09:46:25;;;;;;;33.72;21.25;;;8.60;99.90;;;;;;4973117;28;20400;-89
2022/01/04 09:48:51;;;;;;;32.45;21.70;;;8.60;99.90;;;;;;5003457;28;20033;-89
2022/01/04 09:51:17;;;;;;;30.15;19.60;;;8.60;99.90;;;;;;5017695;28;20069;-90
2022/01/04 09:53:43;;;;;;;30.40;21.20;;;8.50;99.90;;;;;;4992069;28;20034;-88
2022/01/04 09:56:09;;;;;;;34.45;22.67;;;8.50;99.90;;;;;;5004178;28;21217;-89
2022/01/04 09:58:34;;;;;;;18.50;10.60;;;8.50;99.90;;;;;;4999798;28;20042;-88
2022/01/04 10:01:00;;;;;;;14.10;7.03;;;8.50;99.90;;;;;;5008619;28;20081;-89
2022/01/04 10:03:32;;;;;;;11.55;6.05;;;8.40;99.90;;;;;;4998945;28;20040;-89
2022/01/04 10:06:15;;;;;;;12.52;5.85;;;8.30;99.90;;;;;;4995867;28;20050;-89
2022/01/04 10:09:01;;;;;;;12.30;6.75;;;8.20;99.90;;;;;;4994580;28;20049;-89
2022/01/04 10:11:35;;;;;;;15.68;9.40;;;8.10;99.90;;;;;;4982399;28;20038;-89
2022/01/04 10:14:22;;;;;;;12.00;6.22;;;8.10;99.90;;;;;;5011815;28;20038;-88
2022/01/04 10:16:59;;;;;;;12.90;5.50;;;8.10;99.90;;;;;;4993807;28;20487;-89
2022/01/04 10:19:41;;;;;;;12.90;5.50;;;8.00;99.90;;;;;;5010622;28;20520;-89
2022/01/04 10:22:15;;;;;;;12.02;5.28;;;8.00;99.90;;;;;;5007655;28;20069;-89
2022/01/04 10:24:43;;;;;;;10.05;4.05;;;8.00;99.90;;;;;;4988780;28;20053;-89
2022/01/04 10:27:40;;;;;;;10.32;3.47;;;8.00;99.90;;;;;;5009808;28;20533;-89
2022/01/04 10:30:20;;;;;;;9.27;3.55;;;8.00;99.90;;;;;;5009920;28;20514;-88
2022/01/04 10:32:51;;;;;;;8.75;3.38;;;8.00;99.90;;;;;;4993120;28;20034;-88
2022/01/04 10:35:29;;;;;;;9.77;3.28;;;8.00;99.90;;;;;;4993797;28;20546;-90
2022/01/04 10:37:57;;;;;;;10.25;3.35;;;8.00;99.90;;;;;;4991958;28;20092;-88
2022/01/04 10:40:25;;;;;;;8.80;2.92;;;8.00;99.90;;;;;;4993042;28;20088;-89
2022/01/04 10:42:51;;;;;;;8.75;2.65;;;8.00;99.90;;;;;;5010067;28;20050;-88
2022/01/04 10:45:31;;;;;;;9.98;2.40;;;8.00;99.90;;;;;;5009875;28;20054;-89
2022/01/04 10:48:13;;;;;;;7.80;2.30;;;8.00;99.90;;;;;;4989342;28;20420;-88
2022/01/04 10:50:40;;;;;;;9.07;2.22;;;8.00;99.90;;;;;;5009086;28;20042;-89
2022/01/04 10:53:12;;;;;;;9.55;2.55;;;8.00;99.90;;;;;;4991801;28;20650;-89
2022/01/04 10:55:38;;;;;;;9.38;2.08;;;8.00;99.90;;;;;;4992519;28;20088;-88
2022/01/04 10:58:04;;;;;;;11.90;2.80;;;7.90;99.90;;;;;;5008748;28;20072;-89
2022/01/04 11:00:31;;;;;;;12.02;3.03;;;8.00;99.90;;;;;;4991758;28;20049;-89
2022/01/04 11:02:58;;;;;;;9.77;2.67;;;8.00;99.90;;;;;;4991621;28;20503;-89
2022/01/04 11:05:24;;;;;;;8.98;2.70;;;7.90;99.90;;;;;;4985239;28;20034;-89
2022/01/04 11:08:02;;;;;;;9.82;3.10;;;7.90;99.90;;;;;;4993185;28;20046;-89
2022/01/04 11:10:31;;;;;;;10.10;3.67;;;7.90;99.90;;;;;;5012810;28;20069;-88
2022/01/04 11:12:58;;;;;;;9.88;3.25;;;7.90;99.90;;;;;;5009596;28;20060;-88
2022/01/04 11:15:27;;;;;;;8.93;2.80;;;8.00;99.90;;;;;;5009305;28;20060;-88
2022/01/04 11:17:53;;;;;;;14.60;4.75;;;8.00;99.90;;;;;;5009644;28;20042;-89
2022/01/04 11:20:20;;;;;;;10.73;2.47;;;8.00;99.90;;;;;;4993660;28;20037;-88
2022/01/04 11:22:47;;;;;;;11.32;3.13;;;8.10;99.90;;;;;;4998885;28;20527;-89
2022/01/04 11:25:16;;;;;;;7.50;2.17;;;8.10;99.90;;;;;;4993044;28;20083;-89
2022/01/04 11:27:42;;;;;;;7.88;2.03;;;8.10;99.90;;;;;;4992072;28;20256;-88
2022/01/04 11:30:24;;;;;;;6.60;1.50;;;8.10;99.90;;;;;;5007920;28;20084;-88
2022/01/04 11:32:55;;;;;;;10.23;1.50;;;8.20;99.90;;;;;;5007535;28;20042;-89
2022/01/04 11:35:22;;;;;;;7.53;1.67;;;8.10;99.90;;;;;;4991197;28;20515;-88
2022/01/04 11:37:56;;;;;;;8.18;1.77;;;8.10;99.90;;;;;;4989452;28;20052;-88
2022/01/04 11:40:34;;;;;;;5.53;1.20;;;8.10;99.90;;;;;;4991638;28;20038;-88
2022/01/04 11:43:01;;;;;;;11.23;1.70;;;8.10;99.90;;;;;;4992431;28;20053;-88
2022/01/04 11:45:48;;;;;;;7.75;2.38;;;8.10;99.90;;;;;;5009317;28;20065;-88
2022/01/04 11:48:30;;;;;;;12.30;2.80;;;8.10;99.90;;;;;;5005301;28;20046;-89
2022/01/04 11:50:59;;;;;;;9.40;2.58;;;8.10;99.90;;;;;;4989455;28;20057;-89
2022/01/04 11:53:25;;;;;;;9.68;2.25;;;8.10;99.90;;;;;;5025748;28;20041;-88
2022/01/04 11:55:57;;;;;;;10.10;2.50;;;8.10;99.90;;;;;;4992860;28;20129;-88
2022/01/04 11:58:26;;;;;;;9.63;3.10;;;8.10;99.90;;;;;;5009744;28;20529;-88
2022/01/04 12:01:03;;;;;;;8.02;1.88;;;8.10;99.90;;;;;;5009542;28;20042;-89
2022/01/04 12:03:37;;;;;;;7.63;1.45;;;8.10;99.90;;;;;;5009393;28;20377;-88
2022/01/04 12:06:05;;;;;;;6.50;1.70;;;8.10;99.90;;;;;;5009200;28;20104;-88
2022/01/04 12:08:44;;;;;;;8.57;2.25;;;8.10;99.90;;;;;;5009294;28;20045;-88
2022/01/04 12:11:25;;;;;;;8.95;2.42;;;8.10;99.90;;;;;;4992050;28;20042;-88
2022/01/04 12:13:56;;;;;;;8.93;2.78;;;8.10;99.90;;;;;;4982172;28;20038;-88
2022/01/04 12:16:42;;;;;;;5.00;1.40;;;8.10;99.90;;;;;;4993723;28;20073;-88
2022/01/04 12:19:12;;;;;;;4.40;1.15;;;8.10;99.90;;;;;;5013171;28;20442;-88
2022/01/04 12:22:00;;;;;;;4.03;0.95;;;8.00;99.90;;;;;;5013249;28;20042;-88
2022/01/04 12:24:42;;;;;;;4.05;1.08;;;8.00;99.90;;;;;;5011713;28;20522;-88
2022/01/04 12:27:12;;;;;;;4.00;1.00;;;8.00;99.90;;;;;;5013106;28;20076;-88
2022/01/04 12:29:38;;;;;;;2.30;0.85;;;7.90;99.90;;;;;;5013303;28;20132;-88
2022/01/04 12:32:09;;;;;;;3.40;0.90;;;7.90;99.90;;;;;;5012635;28;20048;-88
2022/01/04 12:34:46;;;;;;;3.28;1.00;;;7.80;99.90;;;;;;4995983;28;20041;-88
2022/01/04 12:37:18;;;;;;;4.45;1.10;;;7.80;99.90;;;;;;5012903;28;20038;-88
2022/01/04 12:39:45;;;;;;;2.38;0.80;;;7.80;99.90;;;;;;5006773;28;20038;-88
2022/01/04 12:42:15;;;;;;;4.30;1.10;;;7.80;99.90;;;;;;5012968;28;20125;-88
2022/01/04 12:44:41;;;;;;;4.70;0.95;;;7.70;99.90;;;;;;5012281;28;20077;-88
2022/01/04 12:47:09;;;;;;;7.20;1.77;;;7.70;99.90;;;;;;4995634;28;20030;-88
2022/01/04 12:49:35;;;;;;;5.28;1.30;;;7.70;99.90;;;;;;5011800;28;20042;-88
2022/01/04 12:52:06;;;;;;;7.07;1.20;;;7.70;99.90;;;;;;5008262;28;20050;-88